createdAt,value
2019-05-16T00:09:23.794Z,9.5
2019-05-16T00:14:28.821Z,9.3
2019-05-16T00:19:33.770Z,9.3
2019-05-16T00:24:43.859Z,9.1
2019-05-16T00:29:53.796Z,8.9
2019-05-16T00:34:58.854Z,8.8
2019-05-16T00:40:03.864Z,8.8
2019-05-16T00:45:09.359Z,8.8
2019-05-16T00:50:13.957Z,8.7
2019-05-16T00:55:23.794Z,8.7
2019-05-16T01:00:33.807Z,8.7
2019-05-16T01:05:38.961Z,8.6
2019-05-16T01:10:43.808Z,8.5
2019-05-16T01:15:48.882Z,8.5
2019-05-16T01:20:55.769Z,8.4
2019-05-16T01:25:59.026Z,8.4
2019-05-16T01:31:08.809Z,8.5
2019-05-16T01:36:32.045Z,8.4
2019-05-16T01:37:28.054Z,8.4
2019-05-16T01:41:23.754Z,8.3
2019-05-16T01:46:28.835Z,8.4
2019-05-16T01:51:33.776Z,8.4
2019-05-16T01:56:38.938Z,8.3
2019-05-16T02:01:48.780Z,8.3
2019-05-16T02:06:58.774Z,8.3
2019-05-16T02:12:03.803Z,8.3
2019-05-16T02:17:11.178Z,8.4
2019-05-16T02:22:13.814Z,8.4
2019-05-16T02:27:18.744Z,8.6
2019-05-16T02:32:31.217Z,8.6
2019-05-16T02:37:41.669Z,8.6
2019-05-16T02:42:43.678Z,8.8
2019-05-16T02:47:51.298Z,8.9
2019-05-16T02:52:53.947Z,8.8
2019-05-16T02:58:00.680Z,8.7
2019-05-16T03:03:11.599Z,8.6
2019-05-16T03:08:20.898Z,8.9
2019-05-16T03:13:23.695Z,8.8
2019-05-16T03:18:30.932Z,8.8
2019-05-16T03:23:33.684Z,8.7
2019-05-16T03:28:41.240Z,8.8
2019-05-16T03:38:41.283Z,8.7
2019-05-16T03:43:43.883Z,8.8
2019-05-16T03:48:51.790Z,8.9
2019-05-16T03:54:02.593Z,8.9
2019-05-16T03:59:10.886Z,8.9
2019-05-16T04:04:13.862Z,9
2019-05-16T04:09:21.026Z,8.9
2019-05-16T04:14:23.866Z,9.2
2019-05-16T04:19:31.321Z,9.1
2019-05-16T04:24:41.548Z,9.1
2019-05-16T04:29:51.267Z,9.1
2019-05-16T04:34:53.847Z,9.2
2019-05-16T04:40:01.179Z,9.2
2019-05-16T04:45:03.869Z,9.3
2019-05-16T04:50:11.509Z,9.2
2019-05-16T04:55:13.857Z,9.2
2019-05-16T05:00:21.120Z,9.2
2019-05-16T05:05:23.841Z,9.3
2019-05-16T05:10:31.174Z,9.4
2019-05-16T05:15:33.813Z,9.4
2019-05-16T05:20:40.981Z,9.4
2019-05-16T05:25:43.858Z,9.4
2019-05-16T05:35:43.934Z,9.4
2019-05-16T05:40:50.966Z,9.4
2019-05-16T05:45:54.030Z,9.5
2019-05-16T05:51:04.017Z,9.4
2019-05-16T05:56:15.558Z,9.5
2019-05-16T06:01:20.428Z,9.5
2019-05-16T06:11:20.457Z,9.9
2019-05-16T06:16:24.203Z,9.8
2019-05-16T06:21:33.009Z,9.7
2019-05-16T06:26:39.736Z,9.7
2019-05-16T06:31:49.632Z,9.6
2019-05-16T06:36:54.157Z,9.8
2019-05-16T06:42:00.496Z,9.8
2019-05-16T06:47:15.645Z,9.8
2019-05-16T06:48:15.409Z,9.8
2019-05-16T06:52:10.394Z,10
2019-05-16T06:57:14.145Z,9.9
2019-05-16T07:02:27.499Z,9.8
2019-05-16T07:03:30.813Z,9.8
2019-05-16T07:07:24.112Z,9.9
2019-05-16T07:12:31.478Z,10
2019-05-16T07:17:34.182Z,9.9
2019-05-16T07:22:40.574Z,10.1
2019-05-16T07:27:44.128Z,10
2019-05-16T07:32:49.941Z,10
2019-05-16T07:38:00.559Z,10
2019-05-16T07:43:10.694Z,10
2019-05-16T07:48:14.093Z,10
2019-05-16T07:53:21.344Z,10
2019-05-16T07:58:24.186Z,9.9
2019-05-16T08:03:30.326Z,10
2019-05-16T08:08:40.325Z,10.1
2019-05-16T08:18:45.139Z,10.1
2019-05-16T08:23:50.300Z,10.1
2019-05-16T08:28:54.490Z,10.1
2019-05-16T08:34:04.498Z,10.1
2019-05-16T08:39:14.518Z,10.2
2019-05-16T08:44:21.478Z,10.2
2019-05-16T08:45:33.790Z,10.2
2019-05-16T08:49:24.451Z,10.3
2019-05-16T08:54:31.761Z,10.2
2019-05-16T08:55:37.762Z,10.2
2019-05-16T09:04:33.726Z,10.8
2019-05-16T09:09:43.911Z,10.6
2019-05-16T09:10:58.948Z,10.6
2019-05-16T09:13:01.195Z,10.6
2019-05-16T09:14:39.737Z,10.6
2019-05-16T09:19:49.831Z,10.8
2019-05-16T09:24:59.669Z,10.6
2019-05-16T09:30:07.041Z,10.6
2019-05-16T09:35:09.798Z,10.6
2019-05-16T09:40:17.197Z,10.6
2019-05-16T09:45:19.636Z,10.6
2019-05-16T09:50:29.655Z,10.6
2019-05-16T09:55:39.715Z,10.7
2019-05-16T10:00:47.242Z,10.9
2019-05-16T10:05:49.691Z,11
2019-05-16T10:10:56.859Z,10.9
2019-05-16T10:15:59.666Z,10.9
2019-05-16T10:21:09.666Z,10.9
2019-05-16T10:26:19.673Z,10.8
2019-05-16T10:31:38.437Z,10.9
2019-05-16T10:32:36.451Z,10.9
2019-05-16T10:36:29.666Z,11.1
2019-05-16T10:41:36.937Z,11.4
2019-05-16T10:46:39.664Z,11.5
2019-05-16T10:51:49.650Z,11.4
2019-05-16T10:56:59.722Z,11.6
2019-05-16T11:02:07.325Z,11.4
2019-05-16T11:07:09.630Z,11.7
2019-05-16T11:17:12.687Z,11.6
2019-05-16T11:22:14.834Z,11.6
2019-05-16T11:27:19.886Z,11.6
2019-05-16T11:32:29.865Z,11.6
2019-05-16T11:37:39.777Z,11.9
2019-05-16T11:42:47.294Z,11.8
2019-05-16T11:43:56.846Z,11.8
2019-05-16T11:47:49.780Z,11.9
2019-05-16T11:57:49.862Z,12
2019-05-16T12:02:54.954Z,12.3
2019-05-16T12:07:59.928Z,12.4
2019-05-16T12:18:03.941Z,12.6
2019-05-16T12:23:07.902Z,12.5
2019-05-16T12:28:10.180Z,12.5
2019-05-16T12:33:20.191Z,12.6
2019-05-16T12:38:30.202Z,12.4
2019-05-16T12:43:45.638Z,12.6
2019-05-16T12:44:46.839Z,12.6
2019-05-16T12:53:36.705Z,12.4
2019-05-16T12:58:42.120Z,12.6
2019-05-16T13:03:48.003Z,12.6
2019-05-16T13:08:57.271Z,12.7
2019-05-16T13:14:07.740Z,12.8
2019-05-16T13:19:10.324Z,12.7
2019-05-16T13:24:18.294Z,12.6
2019-05-16T13:29:20.378Z,12.6
2019-05-16T13:34:28.037Z,12.7
2019-05-16T13:39:35.310Z,12.6
2019-05-16T13:44:47.087Z,12.7
2019-05-16T13:49:50.525Z,12.6
2019-05-16T13:54:56.351Z,12.7
2019-05-16T14:00:00.356Z,12.6
2019-05-16T14:05:07.427Z,12.8
2019-05-16T14:10:10.330Z,12.8
2019-05-16T14:15:20.318Z,12.7
2019-05-16T14:25:25.615Z,13.8
2019-05-16T14:30:30.640Z,13.8
2019-05-16T14:35:37.575Z,13.2
2019-05-16T14:40:49.915Z,13
2019-05-16T14:45:57.187Z,13.2
2019-05-16T14:51:00.641Z,13.2
2019-05-16T14:56:06.967Z,13.1
2019-05-16T15:01:10.658Z,13.2
2019-05-16T15:06:18.163Z,13.4
2019-05-16T15:11:28.154Z,13.2
2019-05-16T15:16:35.634Z,13.3
2019-05-16T15:21:40.652Z,13.3
2019-05-16T15:26:47.227Z,13.1
2019-05-16T15:31:50.645Z,13.2
2019-05-16T15:36:56.463Z,13.5
2019-05-16T15:42:08.139Z,13.4
2019-05-16T15:47:17.575Z,13.3
2019-05-16T15:52:20.786Z,13.3
2019-05-16T15:57:26.880Z,13.3
2019-05-16T16:02:30.690Z,13.3
2019-05-16T16:07:37.947Z,13.5
2019-05-16T16:12:40.721Z,13.4
2019-05-16T16:27:57.266Z,13.3
2019-05-16T16:33:01.114Z,13.4
2019-05-16T16:38:06.984Z,13.4
2019-05-16T16:43:16.125Z,13.3
2019-05-16T16:48:26.703Z,13.4
2019-05-16T16:53:31.073Z,13.4
2019-05-16T16:58:37.195Z,13.5
2019-05-16T17:03:41.088Z,13.5
2019-05-16T17:08:47.367Z,13.3
2019-05-16T17:13:56.543Z,13.4
2019-05-16T17:19:07.606Z,13.9
2019-05-16T17:24:11.095Z,13.9
2019-05-16T17:29:17.083Z,14
2019-05-16T17:34:21.117Z,13.9
2019-05-16T17:39:27.436Z,13.7
2019-05-16T17:44:37.390Z,13.8
2019-05-16T17:49:46.296Z,14
2019-05-16T17:59:47.925Z,14.3
2019-05-16T18:04:51.369Z,14.5
2019-05-16T18:09:56.709Z,14.4
2019-05-16T18:15:08.357Z,14.8
2019-05-16T18:20:16.341Z,14.8
2019-05-16T18:25:21.342Z,14.9
2019-05-16T18:30:27.083Z,15.1
2019-05-16T18:35:31.354Z,14.6
2019-05-16T18:40:36.893Z,14.7
2019-05-16T18:45:47.139Z,14.7
2019-05-16T18:50:57.371Z,14.5
2019-05-16T18:56:01.322Z,14
2019-05-16T19:01:06.731Z,13.8
2019-05-16T19:06:11.325Z,13.8
2019-05-16T19:11:17.508Z,13.6
2019-05-16T19:16:26.380Z,13.7
2019-05-16T19:26:31.458Z,13.7
2019-05-16T19:31:38.700Z,13.7
2019-05-16T19:36:41.530Z,13.4
2019-05-16T19:41:51.547Z,13.1
2019-05-16T19:47:01.486Z,13.3
2019-05-16T19:52:07.192Z,13.6
2019-05-16T20:02:07.629Z,14.1
2019-05-16T20:07:11.694Z,14
2019-05-16T20:12:16.932Z,13.9
2019-05-16T20:17:27.010Z,14.1
2019-05-16T20:22:36.977Z,13.8
2019-05-16T20:27:41.710Z,13.4
2019-05-16T20:32:46.671Z,13.4
2019-05-16T20:37:51.698Z,13.1
2019-05-16T20:42:59.410Z,13.3
2019-05-16T20:48:11.769Z,13.2
2019-05-16T20:49:18.978Z,13.2
2019-05-16T20:58:11.828Z,13.1
2019-05-16T21:03:16.867Z,12.8
2019-05-16T21:08:21.819Z,12.7
2019-05-16T21:18:22.031Z,12.6
2019-05-16T21:23:27.490Z,12.8
2019-05-16T21:28:32.009Z,12.6
2019-05-16T21:33:42.005Z,12.4
2019-05-16T21:38:52.026Z,12.2
2019-05-16T21:43:57.012Z,12.1
2019-05-16T21:49:02.014Z,12.2
2019-05-16T21:54:07.261Z,12.2
2019-05-16T21:59:12.037Z,11.9
2019-05-16T22:04:22.183Z,11.9
2019-05-16T22:09:31.981Z,11.8
2019-05-16T22:14:37.001Z,11.9
2019-05-16T22:19:41.963Z,12.2
2019-05-16T22:24:49.242Z,12.1
2019-05-16T22:29:52.000Z,12
2019-05-16T22:34:59.815Z,12
2019-05-16T22:44:57.109Z,12
2019-05-16T22:50:02.120Z,12
2019-05-16T22:55:07.373Z,12
2019-05-16T23:00:17.101Z,12
2019-05-16T23:05:27.481Z,11.9
2019-05-16T23:10:32.119Z,11.9
2019-05-16T23:15:37.109Z,11.6
2019-05-16T23:20:42.127Z,11.6
2019-05-16T23:25:47.101Z,11.5
2019-05-16T23:31:07.087Z,11.5
2019-05-16T23:36:22.101Z,11.6
2019-05-16T23:41:32.093Z,11.5
2019-05-16T23:46:42.101Z,11.3
2019-05-16T23:51:47.434Z,11.1
2019-05-16T23:56:52.068Z,11.2
